Prewitt, New Mexico
Current Conditions -  °F | °C
As of 12:55 AM on Monday 22 Dec 2014 (Local Time) from KGNT Reporting Station
Clear Clear  
Wind Chill: 34°   Ceiling: Unl
Heat Index: 40°   Visibility: 10mi
Dew Point: 31°   Wind: 9mph
Humidity: 71%   Direction: 320°NW
Pressure: 29.99"   Gusts: NA
Location:  35.36°N, 108.04°W
Report Text: KGNT 220755Z AUTO 32008KT 10SM CLR 04/M01 A2999 RMK AO2 T00431006
Loading
Personal Weather Stations






























Interactive Weather Map New forecast layout! Learn more

10-Day Weather Forecast

Advertisements
Track Severe Weather on mobile